Time;durP1;ratioP1;P1;durP2;ratioP2;P2;SDS_P1;SDS_P2;PMS_P1;PMS_P2;Temp;Humidity;BMP_temperature;BMP_pressure;BME280_temperature;BME280_humidity;BME280_pressure;Samples;Min_cycle;Max_cycle;Signal;HPM_P1;HPM_P2
2021/06/20 00:01:37;;;;;;;8.07;5.85;;;;;;;25.63;46.56;95692.53;5047696;28;20191;-78
2021/06/20 00:04:03;;;;;;;8.65;6.20;;;;;;;25.59;46.62;95675.28;5046935;28;20044;-78
2021/06/20 00:06:35;;;;;;;10.25;6.78;;;;;;;25.51;47.04;95680.38;5052960;28;20033;-77
2021/06/20 00:09:05;;;;;;;9.98;6.10;;;;;;;25.52;46.72;95676.63;5056077;28;20385;-78
2021/06/20 00:11:31;;;;;;;8.20;6.00;;;;;;;25.46;47.13;95672.31;5049290;28;20052;-78
2021/06/20 00:13:57;;;;;;;10.57;6.28;;;;;;;25.16;48.59;95661.22;5054251;28;20028;-78
2021/06/20 00:16:24;;;;;;;9.98;6.15;;;;;;;25.17;48.08;95654.75;5056307;28;20039;-77
2021/06/20 00:18:51;;;;;;;11.23;6.30;;;;;;;25.16;48.01;95652.34;5049696;28;20016;-77
2021/06/20 00:21:18;;;;;;;11.88;6.90;;;;;;;25.17;47.98;95646.69;5048259;28;20025;-77
2021/06/20 00:23:44;;;;;;;8.02;5.90;;;;;;;25.06;48.38;95636.94;5067753;28;20086;-77
2021/06/20 00:26:10;;;;;;;9.60;6.85;;;;;;;25.20;47.40;95644.56;5049681;28;20091;-77
2021/06/20 00:28:36;;;;;;;8.25;5.78;;;;;;;25.19;47.79;95643.75;5046539;28;20738;-78
2021/06/20 00:31:03;;;;;;;11.80;6.57;;;;;;;25.02;48.77;95649.31;5052630;28;20037;-78
2021/06/20 00:33:29;;;;;;;10.18;6.13;;;;;;;24.98;48.78;95653.59;5048743;28;20344;-78
2021/06/20 00:35:55;;;;;;;9.43;5.60;;;;;;;25.01;48.59;95636.13;5053625;28;20036;-78
2021/06/20 00:38:21;;;;;;;8.88;6.57;;;;;;;24.93;48.73;95635.56;5049788;28;20084;-78
2021/06/20 00:40:47;;;;;;;10.20;6.45;;;;;;;24.94;48.87;95636.38;5046203;28;20127;-78
2021/06/20 00:43:13;;;;;;;8.48;6.43;;;;;;;24.80;49.39;95627.19;5050678;28;20021;-78
2021/06/20 00:45:39;;;;;;;7.57;6.25;;;;;;;24.72;49.59;95620.44;5053544;28;20037;-76
2021/06/20 00:48:06;;;;;;;10.82;6.22;;;;;;;24.78;49.41;95629.31;5053173;28;20433;-78
2021/06/20 00:50:32;;;;;;;9.43;6.18;;;;;;;24.78;49.19;95623.94;5049736;28;20032;-78
2021/06/20 00:52:59;;;;;;;6.95;5.97;;;;;;;24.63;50.00;95625.50;5056471;28;20028;-78
2021/06/20 00:55:30;;;;;;;10.23;6.93;;;;;;;24.49;50.29;95624.38;5048001;28;20168;-76
2021/06/20 00:58:01;;;;;;;7.22;6.18;;;;;;;24.48;50.39;95627.31;5057166;28;20040;-77
2021/06/20 01:00:28;;;;;;;7.90;6.68;;;;;;;24.53;50.14;95627.34;5052726;28;20047;-78
2021/06/20 01:02:54;;;;;;;9.38;5.90;;;;;;;24.51;50.32;95634.84;5047501;28;20037;-77
2021/06/20 01:05:20;;;;;;;9.25;6.07;;;;;;;24.49;50.39;95637.81;5050970;28;20097;-77
2021/06/20 01:07:53;;;;;;;10.75;6.53;;;;;;;24.43;50.36;95630.78;5048948;28;20016;-78
2021/06/20 01:10:23;;;;;;;;;;;;;;;24.46;50.40;95639.16;5047921;28;20441;-78
2021/06/20 01:12:49;;;;;;;7.82;6.55;;;;;;;24.43;50.59;95633.47;5051720;28;19924;-78
2021/06/20 01:15:16;;;;;;;10.18;6.07;;;;;;;24.44;50.67;95638.59;5058489;28;20036;-78
2021/06/20 01:17:44;;;;;;;8.68;6.25;;;;;;;24.45;50.75;95637.53;5049386;28;20490;-77
2021/06/20 01:20:13;;;;;;;8.25;6.30;;;;;;;24.39;51.17;95635.06;5049614;28;20029;-77
2021/06/20 01:22:41;;;;;;;11.70;6.68;;;;;;;24.39;51.41;95651.97;5028836;28;20166;-78
2021/06/20 01:25:10;;;;;;;8.50;6.45;;;;;;;24.66;49.92;95633.06;5053670;28;20028;-77
2021/06/20 01:27:44;;;;;;;10.30;6.60;;;;;;;24.73;49.89;95634.69;5050658;28;20044;-78
2021/06/20 01:30:13;;;;;;;9.10;6.72;;;;;;;24.74;49.76;95639.78;5054502;28;20045;-78
2021/06/20 01:32:39;;;;;;;9.85;6.60;;;;;;;24.65;50.11;95650.25;5048149;28;20037;-77
2021/06/20 01:35:05;;;;;;;9.13;6.13;;;;;;;24.50;51.12;95644.81;5073269;28;20086;-76
2021/06/20 01:37:31;;;;;;;8.25;6.18;;;;;;;24.40;51.61;95650.09;5057039;28;20520;-78
2021/06/20 01:39:57;;;;;;;13.40;6.93;;;;;;;24.39;51.34;95665.41;5053864;28;20029;-78
2021/06/20 01:42:23;;;;;;;8.32;6.68;;;;;;;24.37;51.52;95674.81;5050780;28;20037;-78
2021/06/20 01:44:52;;;;;;;9.75;6.53;;;;;;;24.29;51.94;95676.09;5052525;28;20387;-78
2021/06/20 01:47:21;;;;;;;12.77;7.10;;;;;;;24.23;52.03;95677.94;5053992;28;20031;-77
2021/06/20 01:49:48;;;;;;;9.93;6.53;;;;;;;24.19;52.49;95670.69;5053411;28;20037;-76
2021/06/20 01:52:21;;;;;;;9.65;6.90;;;;;;;24.01;53.35;95661.16;5054399;28;20021;-78
2021/06/20 01:54:51;;;;;;;7.35;6.22;;;;;;;24.00;53.82;95671.06;5058318;28;20021;-78
2021/06/20 01:57:28;;;;;;;8.38;6.57;;;;;;;23.87;54.22;95659.97;5078846;28;20558;-77
2021/06/20 01:59:56;;;;;;;9.98;6.40;;;;;;;23.84;53.62;95673.91;5063601;28;20033;-77
2021/06/20 02:02:22;;;;;;;10.90;6.70;;;;;;;23.97;53.06;95690.38;5056740;28;20029;-78
2021/06/20 02:04:54;;;;;;;8.52;6.97;;;;;;;23.82;54.04;95701.03;5061352;28;20032;-77
2021/06/20 02:07:20;;;;;;;8.90;6.87;;;;;;;23.79;54.17;95706.09;5053647;28;20503;-77
2021/06/20 02:09:46;;;;;;;9.93;7.00;;;;;;;23.62;54.84;95731.16;5061924;28;20451;-78
2021/06/20 02:12:15;;;;;;;8.52;7.25;;;;;;;23.65;54.80;95729.84;5040346;28;20044;-77
2021/06/20 02:14:41;;;;;;;9.23;6.38;;;;;;;23.66;54.40;95724.19;5041246;28;20033;-78
2021/06/20 02:17:31;;;;;;;8.15;6.68;;;;;;;23.61;54.84;95732.22;5051267;28;20032;-78
2021/06/20 02:20:18;;;;;;;9.20;6.80;;;;;;;23.57;55.26;95744.50;5067779;28;20097;-77
2021/06/20 02:22:46;;;;;;;9.25;6.78;;;;;;;23.65;54.81;95736.00;5068036;28;20073;-78
2021/06/20 02:25:14;;;;;;;11.77;7.38;;;;;;;23.68;54.56;95738.22;5086509;28;20036;-77
2021/06/20 02:27:41;;;;;;;19.77;7.45;;;;;;;23.80;53.91;95739.91;5075766;28;20168;-76
2021/06/20 02:30:09;;;;;;;20.10;6.82;;;;;;;23.99;53.54;95741.97;5047226;28;20160;-78
2021/06/20 02:32:36;;;;;;;27.40;8.85;;;;;;;24.05;53.39;95748.22;5066572;28;20005;-76
2021/06/20 02:35:03;;;;;;;19.65;7.20;;;;;;;24.05;53.40;95734.78;5059260;28;20084;-76
2021/06/20 02:37:33;;;;;;;24.58;8.18;;;;;;;24.13;53.08;95718.19;5076018;28;20028;-77
2021/06/20 02:39:59;;;;;;;23.48;7.10;;;;;;;24.21;52.95;95728.47;5065514;28;20088;-76
2021/06/20 02:42:25;;;;;;;25.15;7.55;;;;;;;24.25;52.52;95730.63;5067029;28;20043;-76
2021/06/20 02:44:51;;;;;;;23.95;8.32;;;;;;;24.26;52.68;95719.63;5059923;28;20556;-76
2021/06/20 02:47:17;;;;;;;32.85;8.55;;;;;;;24.36;52.17;95724.25;5073469;28;20032;-76
2021/06/20 02:49:44;;;;;;;25.88;7.30;;;;;;;24.27;52.61;95731.97;5053759;28;20060;-77
2021/06/20 02:52:12;;;;;;;21.50;7.68;;;;;;;24.16;53.43;95749.09;5064717;28;20041;-76
2021/06/20 02:54:49;;;;;;;22.25;7.55;;;;;;;24.12;53.62;95748.00;5053593;28;20383;-78
2021/06/20 02:57:26;;;;;;;26.20;7.80;;;;;;;24.03;54.14;95769.13;5053387;28;20037;-78
2021/06/20 02:59:53;;;;;;;22.33;6.68;;;;;;;23.98;54.60;95766.41;5052637;28;20021;-77
2021/06/20 03:02:20;;;;;;;23.35;8.40;;;;;;;23.94;54.98;95767.97;5052532;28;20035;-78
2021/06/20 03:04:46;;;;;;;20.48;7.82;;;;;;;23.93;54.97;95779.78;5079320;28;20039;-77
2021/06/20 03:07:13;;;;;;;23.83;7.55;;;;;;;23.90;55.00;95782.97;5042710;28;20037;-76
2021/06/20 03:09:38;;;;;;;25.45;7.70;;;;;;;23.87;55.43;95781.59;5037888;28;20142;-78
2021/06/20 03:12:06;;;;;;;24.05;6.80;;;;;;;23.83;55.66;95782.38;5055317;28;20533;-78
2021/06/20 03:14:33;;;;;;;29.55;7.75;;;;;;;23.79;55.81;95782.06;5038794;28;20048;-78
2021/06/20 03:16:59;;;;;;;26.02;7.85;;;;;;;23.67;56.22;95790.25;5053783;28;20876;-77
2021/06/20 03:19:25;;;;;;;25.45;7.47;;;;;;;23.66;56.69;95794.00;5060705;28;20157;-77
2021/06/20 03:21:55;;;;;;;20.90;7.68;;;;;;;23.66;56.75;95795.88;5051638;28;20383;-76
2021/06/20 03:24:20;;;;;;;23.10;7.47;;;;;;;23.62;57.42;95800.94;5042997;28;20582;-77
2021/06/20 03:26:46;;;;;;;22.42;7.18;;;;;;;23.64;57.46;95798.81;5058913;28;20031;-78
2021/06/20 03:29:12;;;;;;;23.75;7.43;;;;;;;23.61;58.12;95793.13;5059258;28;20047;-77
2021/06/20 03:31:38;;;;;;;30.25;8.50;;;;;;;23.64;57.97;95798.00;5050030;28;20052;-77
2021/06/20 03:34:03;;;;;;;26.45;7.95;;;;;;;23.60;58.36;95799.56;5049269;28;20064;-77
2021/06/20 03:36:29;;;;;;;23.67;8.05;;;;;;;23.58;58.52;95805.19;5051648;28;20090;-77
2021/06/20 03:38:56;;;;;;;21.70;7.70;;;;;;;23.57;58.91;95802.75;5049904;28;20033;-77
2021/06/20 03:41:21;;;;;;;24.08;8.32;;;;;;;23.49;59.31;95801.31;5055736;28;20040;-78
2021/06/20 03:43:47;;;;;;;26.67;9.30;;;;;;;23.44;59.80;95810.13;5052525;28;20090;-78
2021/06/20 03:46:13;;;;;;;26.00;7.85;;;;;;;23.42;60.23;95817.63;5066398;28;20084;-78
2021/06/20 03:48:39;;;;;;;31.90;8.13;;;;;;;23.30;60.91;95815.06;5048884;28;20107;-77
2021/06/20 03:51:06;;;;;;;27.30;8.40;;;;;;;23.34;61.16;95819.91;5049496;28;20500;-78
2021/06/20 03:53:33;;;;;;;25.33;8.75;;;;;;;23.28;61.74;95830.59;5050825;28;20132;-76
2021/06/20 03:55:59;;;;;;;26.38;7.85;;;;;;;23.19;62.19;95821.34;5051186;28;20060;-77
2021/06/20 03:58:25;;;;;;;23.63;7.68;;;;;;;23.12;62.50;95819.94;5045690;28;20051;-77
2021/06/20 04:00:50;;;;;;;28.17;8.05;;;;;;;23.12;62.67;95822.59;5053430;28;20376;-78
2021/06/20 04:03:16;;;;;;;22.15;8.25;;;;;;;23.04;63.03;95827.34;5052861;28;20040;-77
2021/06/20 04:05:42;;;;;;;31.58;9.32;;;;;;;22.99;63.34;95813.84;5044475;28;20025;-78
2021/06/20 04:08:08;;;;;;;26.15;8.05;;;;;;;22.98;63.04;95811.44;5046384;28;20646;-78
2021/06/20 04:10:34;;;;;;;23.05;7.38;;;;;;;22.94;63.13;95821.03;5055633;28;20024;-77
2021/06/20 04:13:00;;;;;;;25.02;9.20;;;;;;;22.87;63.59;95821.19;5051222;28;20136;-77
2021/06/20 04:15:26;;;;;;;29.02;9.73;;;;;;;22.90;63.86;95838.63;5050845;28;20104;-76
2021/06/20 04:17:52;;;;;;;21.58;7.95;;;;;;;22.95;63.80;95838.75;5047772;28;20048;-78
2021/06/20 04:20:18;;;;;;;25.33;8.23;;;;;;;22.98;64.01;95836.38;5048935;28;20037;-78
2021/06/20 04:22:44;;;;;;;22.60;7.80;;;;;;;23.05;63.76;95830.84;5051862;28;20037;-76
2021/06/20 04:25:15;;;;;;;23.00;7.72;;;;;;;23.13;63.79;95827.72;5049645;28;20246;-78
2021/06/20 04:27:48;;;;;;;30.63;8.55;;;;;;;23.11;63.85;95832.53;5051341;28;20056;-77
2021/06/20 04:30:18;;;;;;;;;;;;;;;23.20;63.79;95824.84;5056188;28;20141;-77
2021/06/20 04:32:45;;;;;;;19.83;7.57;;;;;;;23.05;64.34;95828.16;5042077;28;19919;-78
2021/06/20 04:35:12;;;;;;;27.15;9.13;;;;;;;23.06;64.61;95843.19;5046859;28;20079;-77
2021/06/20 04:37:39;;;;;;;25.77;8.52;;;;;;;23.00;65.11;95847.69;5047658;28;20124;-78
2021/06/20 04:40:07;;;;;;;25.75;7.88;;;;;;;22.99;65.25;95866.69;5050252;28;20074;-78
2021/06/20 04:42:37;;;;;;;30.25;8.57;;;;;;;22.81;66.29;95865.06;5052612;28;20033;-77
2021/06/20 04:45:04;;;;;;;26.08;8.68;;;;;;;22.73;66.85;95889.56;5053871;28;20024;-78
2021/06/20 04:47:30;;;;;;;24.20;8.18;;;;;;;22.57;68.75;95877.81;5040991;28;20183;-78
2021/06/20 04:49:57;;;;;;;23.08;8.70;;;;;;;22.60;72.23;95882.66;5060031;28;20025;-78
2021/06/20 04:52:23;;;;;;;22.33;8.27;;;;;;;22.49;73.23;95868.31;5047987;28;20086;-77
2021/06/20 04:54:49;;;;;;;27.80;9.38;;;;;;;22.35;71.91;95848.25;5048945;28;20036;-77
2021/06/20 04:57:20;;;;;;;22.40;8.35;;;;;;;22.32;72.50;95841.50;5047742;28;20048;-78
2021/06/20 04:59:46;;;;;;;22.23;8.80;;;;;;;22.31;76.02;95841.75;5047875;28;20508;-77
2021/06/20 05:02:14;;;;;;;27.27;9.25;;;;;;;22.14;75.14;95841.72;5048120;28;20461;-76
2021/06/20 05:04:41;;;;;;;27.75;9.70;;;;;;;22.20;77.24;95850.66;5064984;28;20033;-77
2021/06/20 05:07:07;;;;;;;25.17;9.27;;;;;;;22.10;77.99;95853.97;5055438;28;20526;-77
2021/06/20 05:09:33;;;;;;;28.50;8.45;;;;;;;22.10;77.53;95849.41;5047383;28;20036;-77
2021/06/20 05:11:58;;;;;;;21.65;8.73;;;;;;;22.10;77.33;95838.69;5056746;28;20049;-77
2021/06/20 05:14:25;;;;;;;20.02;8.05;;;;;;;22.26;76.37;95844.34;5046348;28;20091;-77
2021/06/20 05:16:51;;;;;;;21.38;9.30;;;;;;;22.36;76.31;95848.00;5052243;28;20024;-77
2021/06/20 05:19:17;;;;;;;26.48;8.88;;;;;;;22.40;77.28;95832.28;5049602;28;20033;-76
2021/06/20 05:21:43;;;;;;;21.05;8.63;;;;;;;22.44;76.28;95825.38;5048048;28;20025;-78
2021/06/20 05:24:09;;;;;;;23.58;9.18;;;;;;;22.56;75.78;95826.06;5059476;28;20418;-77
2021/06/20 05:26:35;;;;;;;21.50;8.98;;;;;;;22.64;76.13;95822.19;5050490;28;20044;-77
2021/06/20 05:29:00;;;;;;;24.48;7.93;;;;;;;22.72;75.67;95808.34;5032741;28;20535;-78
2021/06/20 05:31:26;;;;;;;21.95;9.00;;;;;;;22.69;76.38;95808.84;5051746;28;20482;-77
2021/06/20 05:33:52;;;;;;;24.02;8.63;;;;;;;22.69;75.90;95811.53;5051312;28;20036;-77
2021/06/20 05:36:18;;;;;;;28.38;8.95;;;;;;;22.64;76.83;95818.69;5074448;28;20020;-77
2021/06/20 05:38:44;;;;;;;32.22;16.73;;;;;;;22.57;76.87;95813.50;5051804;28;20078;-77
2021/06/20 05:41:10;;;;;;;25.45;13.32;;;;;;;22.56;77.94;95826.06;5052069;28;20094;-78
2021/06/20 05:43:36;;;;;;;26.15;10.88;;;;;;;22.59;77.80;95819.41;5060623;28;20040;-77
2021/06/20 05:46:02;;;;;;;20.88;8.32;;;;;;;22.55;77.56;95819.09;5069688;28;20024;-78
2021/06/20 05:48:29;;;;;;;31.48;8.85;;;;;;;22.47;77.08;95822.19;5051405;28;20033;-78
2021/06/20 05:50:54;;;;;;;25.45;8.98;;;;;;;22.50;76.41;95831.59;5050777;28;20075;-77
2021/06/20 05:53:20;;;;;;;21.77;8.18;;;;;;;22.36;77.46;95850.66;5045940;28;20095;-77
2021/06/20 05:55:46;;;;;;;23.65;8.15;;;;;;;22.24;77.59;95865.22;5052918;28;20021;-78
2021/06/20 05:58:12;;;;;;;21.30;8.52;;;;;;;22.16;76.77;95874.44;5052007;28;20033;-77
2021/06/20 06:00:39;;;;;;;30.77;9.98;;;;;;;22.06;79.49;95901.81;5052897;28;20040;-76
2021/06/20 06:03:05;;;;;;;39.95;12.30;;;;;;;21.81;82.48;95899.47;5049607;28;20036;-77
2021/06/20 06:05:30;;;;;;;28.30;10.75;;;;;;;21.63;80.70;95878.25;5049693;28;20025;-77
2021/06/20 06:07:56;;;;;;;31.00;10.60;;;;;;;21.92;82.37;95875.56;5064626;28;20079;-77
2021/06/20 06:10:23;;;;;;;28.42;11.68;;;;;;;21.96;87.13;95869.50;5059127;28;20020;-77
2021/06/20 06:12:50;;;;;;;27.42;11.70;;;;;;;21.94;86.01;95876.97;5058081;28;20420;-77
2021/06/20 06:15:17;;;;;;;28.17;10.82;;;;;;;22.24;85.18;95890.13;5069989;28;20028;-78
2021/06/20 06:17:43;;;;;;;20.63;10.52;;;;;;;22.36;84.76;95890.03;5050731;28;20115;-78
2021/06/20 06:20:09;;;;;;;27.63;11.18;;;;;;;21.75;88.79;95908.44;5049305;28;20061;-78
2021/06/20 06:22:36;;;;;;;26.83;11.05;;;;;;;22.08;85.87;95889.00;5057705;28;20402;-78
2021/06/20 06:25:02;;;;;;;23.40;10.80;;;;;;;22.18;85.69;95896.44;5049027;28;20078;-78
2021/06/20 06:27:28;;;;;;;27.48;10.82;;;;;;;22.05;86.59;95894.84;5048978;28;20409;-78
2021/06/20 06:29:54;;;;;;;38.03;11.60;;;;;;;21.98;86.41;95904.06;5058184;28;20033;-78
2021/06/20 06:32:20;;;;;;;29.65;11.52;;;;;;;22.20;87.35;95902.38;5048077;28;20040;-77
2021/06/20 06:34:45;;;;;;;24.92;12.00;;;;;;;22.09;87.34;95904.00;5050372;28;20079;-78
2021/06/20 06:37:11;;;;;;;29.02;11.05;;;;;;;22.07;85.90;95905.31;5053683;28;20032;-77
2021/06/20 06:39:37;;;;;;;27.83;11.88;;;;;;;21.96;89.15;95912.31;5063699;28;20075;-77
2021/06/20 06:42:03;;;;;;;30.45;10.43;;;;;;;21.79;89.01;95922.97;5064113;28;20489;-77
2021/06/20 06:44:29;;;;;;;26.30;11.02;;;;;;;21.63;90.06;95929.09;5051132;28;20029;-77
2021/06/20 06:46:55;;;;;;;31.10;13.00;;;;;;;21.68;90.50;95934.53;5051694;28;20035;-78
2021/06/20 06:49:21;;;;;;;30.33;10.95;;;;;;;21.72;89.25;95932.19;5049382;28;20052;-77
2021/06/20 06:51:49;;;;;;;27.42;11.55;;;;;;;21.78;89.82;95945.44;5052510;28;20093;-76
2021/06/20 06:54:17;;;;;;;26.95;11.40;;;;;;;21.65;90.78;95959.09;5046768;28;20036;-77
2021/06/20 06:56:43;;;;;;;23.05;11.30;;;;;;;21.60;90.08;95967.03;5068288;28;20025;-77
2021/06/20 06:59:08;;;;;;;27.65;12.15;;;;;;;21.66;92.22;95966.06;5057255;28;20028;-77
2021/06/20 07:01:34;;;;;;;33.42;11.90;;;;;;;21.60;90.62;95977.72;5066508;28;20048;-77
2021/06/20 07:04:00;;;;;;;30.08;11.05;;;;;;;21.78;90.58;95990.94;5057092;28;20037;-77
2021/06/20 07:06:27;;;;;;;25.30;11.52;;;;;;;21.89;88.70;95994.66;5064640;28;20162;-77
2021/06/20 07:08:52;;;;;;;31.90;11.10;;;;;;;21.75;87.65;96007.47;5046167;28;20294;-77
2021/06/20 07:11:19;;;;;;;31.02;11.07;;;;;;;22.04;87.56;95997.66;5058608;28;20724;-77
2021/06/20 07:13:45;;;;;;;26.02;10.20;;;;;;;21.78;88.43;95998.97;5051829;28;20020;-77
2021/06/20 07:16:10;;;;;;;22.48;9.60;;;;;;;22.13;86.18;95998.06;5055873;28;20095;-77
2021/06/20 07:18:36;;;;;;;22.02;9.25;;;;;;;22.13;85.98;95992.72;5047935;28;20044;-77
2021/06/20 07:21:02;;;;;;;22.98;8.73;;;;;;;22.03;83.58;95992.50;5030725;28;20125;-77
2021/06/20 07:23:28;;;;;;;24.48;8.98;;;;;;;21.93;83.84;95992.31;5054555;28;20035;-77
2021/06/20 07:25:54;;;;;;;23.45;9.63;;;;;;;21.86;84.19;95990.59;5064494;28;20041;-77
2021/06/20 07:28:20;;;;;;;22.70;8.80;;;;;;;21.55;84.80;95977.59;5047708;28;20021;-77
2021/06/20 07:30:49;;;;;;;23.90;8.38;;;;;;;22.03;82.50;95968.41;5046133;28;20033;-77
2021/06/20 07:33:16;;;;;;;18.83;8.27;;;;;;;21.88;81.83;95966.25;5046869;28;20028;-77
2021/06/20 07:35:41;;;;;;;20.58;7.72;;;;;;;22.08;82.01;95965.84;5047658;28;20033;-78
2021/06/20 07:38:07;;;;;;;31.33;8.35;;;;;;;22.27;81.84;95961.97;5048120;28;20036;-78
2021/06/20 07:40:33;;;;;;;21.13;8.18;;;;;;;22.34;81.71;95956.47;5049444;28;20036;-77
2021/06/20 07:42:58;;;;;;;23.40;8.63;;;;;;;22.56;82.19;95953.91;5045083;28;20048;-77
2021/06/20 07:45:24;;;;;;;26.60;8.43;;;;;;;22.30;83.71;95966.84;5053541;28;20041;-78
2021/06/20 07:47:52;;;;;;;22.08;7.95;;;;;;;22.48;80.01;95954.31;5048424;28;20452;-78
2021/06/20 07:50:19;;;;;;;20.83;7.53;;;;;;;22.64;77.55;95945.47;5047137;28;20029;-78
2021/06/20 07:52:45;;;;;;;24.98;7.47;;;;;;;22.87;75.37;95944.53;5048033;28;20013;-78
2021/06/20 07:55:12;;;;;;;22.42;7.53;;;;;;;22.58;76.50;95941.88;5047070;28;20124;-76
2021/06/20 07:57:38;;;;;;;23.27;8.10;;;;;;;22.74;77.78;95932.25;5030310;28;20025;-77
2021/06/20 08:00:08;;;;;;;24.17;7.47;;;;;;;22.43;80.78;95922.03;5027251;28;20040;-77
2021/06/20 08:02:38;;;;;;;20.42;6.95;;;;;;;22.70;77.63;95915.03;5045729;28;20029;-77
2021/06/20 08:05:05;;;;;;;22.83;7.03;;;;;;;22.68;78.80;95908.28;5047418;28;20021;-77
2021/06/20 08:07:32;;;;;;;23.77;7.60;;;;;;;22.77;78.16;95904.13;5047916;28;20051;-77
2021/06/20 08:09:58;;;;;;;18.13;7.38;;;;;;;23.03;79.51;95905.34;5050698;28;20547;-78
2021/06/20 08:12:25;;;;;;;19.33;7.72;;;;;;;23.16;78.93;95896.97;5046320;28;20029;-77
2021/06/20 08:14:55;;;;;;;24.67;8.35;;;;;;;23.27;81.22;95901.44;5047128;28;20713;-77
2021/06/20 08:17:22;;;;;;;22.80;7.93;;;;;;;23.01;80.87;95897.56;5047373;28;20028;-77
2021/06/20 08:19:48;;;;;;;25.38;7.55;;;;;;;22.98;80.51;95891.88;5047205;28;20072;-76
2021/06/20 08:22:16;;;;;;;20.50;7.28;;;;;;;23.27;77.07;95897.91;5047665;28;20029;-77
2021/06/20 08:24:41;;;;;;;19.90;6.90;;;;;;;23.30;74.73;95884.00;5049739;28;20025;-78
2021/06/20 08:27:07;;;;;;;22.77;7.60;;;;;;;23.15;75.91;95873.09;5049851;28;20037;-78
2021/06/20 08:29:33;;;;;;;24.95;7.65;;;;;;;22.94;77.95;95863.94;5045398;28;20451;-78
2021/06/20 08:31:59;;;;;;;18.42;6.93;;;;;;;22.68;77.99;95868.88;5047505;28;20033;-78
2021/06/20 08:34:29;;;;;;;22.50;7.28;;;;;;;22.52;79.25;95872.38;5032983;28;20028;-77
2021/06/20 08:36:56;;;;;;;18.67;6.07;;;;;;;22.56;78.46;95868.94;5053099;28;20062;-78
2021/06/20 08:39:22;;;;;;;21.80;6.97;;;;;;;22.74;77.25;95877.81;5046559;28;20025;-78
2021/06/20 08:41:48;;;;;;;16.10;6.32;;;;;;;23.13;76.24;95884.03;5050329;28;20029;-77
2021/06/20 08:44:28;;;;;;;15.88;5.88;;;;;;;23.14;76.16;95872.28;5047491;28;20020;-78
2021/06/20 08:46:56;;;;;;;18.65;6.60;;;;;;;23.22;76.27;95877.19;5055012;28;20120;-77
2021/06/20 08:49:23;;;;;;;13.85;6.22;;;;;;;23.21;74.22;95880.16;5047105;28;20048;-77
2021/06/20 08:51:51;;;;;;;22.15;7.10;;;;;;;23.39;74.09;95879.84;5045347;28;20112;-77
2021/06/20 08:54:17;;;;;;;22.15;7.00;;;;;;;23.64;72.94;95875.84;5049335;28;20095;-77
2021/06/20 08:56:44;;;;;;;16.83;6.40;;;;;;;23.92;72.99;95874.84;5033840;28;20025;-76
2021/06/20 08:59:13;;;;;;;25.08;7.40;;;;;;;23.64;74.83;95873.16;5050339;28;20056;-77
2021/06/20 09:01:39;;;;;;;17.70;6.97;;;;;;;23.70;72.86;95866.81;5045891;28;20422;-77
2021/06/20 09:04:06;;;;;;;23.65;6.55;;;;;;;23.59;73.70;95854.31;5051170;28;20032;-77
2021/06/20 09:06:32;;;;;;;21.10;6.85;;;;;;;23.98;72.59;95847.00;5072233;28;20107;-77
2021/06/20 09:09:00;;;;;;;19.30;6.40;;;;;;;24.55;71.27;95851.84;5069994;28;20554;-76
2021/06/20 09:11:38;;;;;;;26.08;6.60;;;;;;;24.77;69.57;95845.53;5063109;28;20101;-76
2021/06/20 09:14:13;;;;;;;19.42;6.28;;;;;;;24.85;68.68;95850.44;5023400;28;20037;-77
2021/06/20 09:16:46;;;;;;;16.42;5.93;;;;;;;25.25;66.14;95843.69;5050805;28;20016;-77
2021/06/20 09:19:12;;;;;;;23.00;7.00;;;;;;;25.25;66.20;95841.84;5050310;28;20060;-77
2021/06/20 09:21:38;;;;;;;21.38;6.43;;;;;;;25.11;67.47;95841.47;5030827;28;20344;-78
2021/06/20 09:24:04;;;;;;;20.63;6.03;;;;;;;25.68;65.11;95826.38;5051846;28;20031;-78
2021/06/20 09:26:41;;;;;;;20.10;6.13;;;;;;;25.78;63.93;95828.28;5051216;28;20017;-77
2021/06/20 09:29:09;;;;;;;21.25;6.57;;;;;;;26.18;62.22;95824.09;5059076;28;20063;-78
2021/06/20 09:31:46;;;;;;;18.88;6.72;;;;;;;27.12;59.26;95816.47;5054672;28;20030;-78
2021/06/20 09:34:12;;;;;;;17.63;5.40;;;;;;;27.35;56.82;95818.59;5048854;28;20086;-78
2021/06/20 09:36:38;;;;;;;22.40;5.32;;;;;;;26.82;57.27;95817.34;5037149;28;20021;-78
2021/06/20 09:39:05;;;;;;;18.23;5.53;;;;;;;26.47;57.69;95821.69;5050664;28;20037;-78
2021/06/20 09:41:31;;;;;;;21.38;6.15;;;;;;;26.55;57.03;95824.66;5059131;28;20040;-77
2021/06/20 09:43:57;;;;;;;20.42;5.30;;;;;;;26.68;59.15;95831.41;5066882;28;20083;-77
2021/06/20 09:46:24;;;;;;;17.60;5.63;;;;;;;26.52;57.91;95835.97;5047779;28;20663;-78
2021/06/20 09:48:50;;;;;;;16.67;5.55;;;;;;;25.90;57.58;95834.28;5058311;28;20036;-78
2021/06/20 09:51:26;;;;;;;18.27;4.70;;;;;;;26.01;56.01;95832.41;5048618;28;20029;-78
2021/06/20 09:53:52;;;;;;;12.70;4.47;;;;;;;26.42;55.23;95822.47;5052159;28;20041;-78
2021/06/20 09:56:25;;;;;;;17.40;4.63;;;;;;;26.12;56.34;95831.34;5055000;28;20009;-78
2021/06/20 09:59:05;;;;;;;17.80;5.47;;;;;;;26.12;56.31;95827.84;5049568;28;20039;-78
2021/06/20 10:01:38;;;;;;;20.73;4.65;;;;;;;25.89;60.57;95827.28;5060553;28;20032;-78
2021/06/20 10:04:04;;;;;;;14.77;5.18;;;;;;;26.32;60.68;95827.84;5066304;28;20036;-78
2021/06/20 10:06:30;;;;;;;16.40;5.43;;;;;;;26.64;61.14;95832.22;5049473;28;20569;-78
2021/06/20 10:08:56;;;;;;;14.60;4.65;;;;;;;26.79;56.60;95821.41;5050470;28;20746;-78
2021/06/20 10:11:23;;;;;;;15.02;4.35;;;;;;;26.55;55.09;95819.25;5060757;28;20064;-79
2021/06/20 10:13:49;;;;;;;14.82;4.65;;;;;;;26.88;54.75;95821.66;5033949;28;20097;-79
2021/06/20 10:16:46;;;;;;;12.38;4.65;;;;;;;26.73;55.27;95809.03;5075354;28;20520;-79
2021/06/20 10:19:15;;;;;;;13.70;4.72;;;;;;;26.58;57.54;95819.81;5045213;28;20041;-79
2021/06/20 10:21:43;;;;;;;20.00;5.97;;;;;;;26.57;59.46;95821.72;5064366;28;20021;-79
2021/06/20 10:24:17;;;;;;;15.77;5.68;;;;;;;26.20;59.20;95824.63;5051244;28;20041;-80
2021/06/20 10:27:00;;;;;;;21.77;9.77;;;;;;;25.68;60.00;95818.28;5046826;28;20079;-80
2021/06/20 10:29:32;;;;;;;22.70;9.05;;;;;;;25.66;59.55;95819.66;5050259;28;20079;-79
2021/06/20 10:31:59;;;;;;;19.30;6.25;;;;;;;25.98;59.27;95822.97;5048486;28;20070;-79
2021/06/20 10:34:31;;;;;;;14.77;5.40;;;;;;;25.80;59.77;95828.88;5048051;28;20035;-80
2021/06/20 10:37:19;;;;;;;17.45;5.85;;;;;;;26.01;58.06;95829.72;5053218;28;20033;-79
2021/06/20 10:39:50;;;;;;;16.73;5.40;;;;;;;26.28;57.35;95814.09;5048189;28;20053;-79
2021/06/20 10:42:16;;;;;;;18.88;5.70;;;;;;;26.36;57.72;95812.78;5045693;28;20090;-80
2021/06/20 10:44:50;;;;;;;14.40;5.65;;;;;;;26.36;59.25;95810.09;5046919;28;20033;-79
2021/06/20 10:47:34;;;;;;;12.95;5.00;;;;;;;26.15;58.92;95817.34;5058171;28;20040;-79
2021/06/20 10:50:26;;;;;;;14.23;4.25;;;;;;;26.12;57.25;95815.16;5048563;28;20033;-80
2021/06/20 10:52:57;;;;;;;18.30;5.57;;;;;;;26.15;57.21;95808.44;5046152;28;20114;-79
2021/06/20 10:55:23;;;;;;;15.25;5.22;;;;;;;26.46;56.69;95802.00;5056382;28;20658;-80
2021/06/20 10:57:51;;;;;;;17.02;5.65;;;;;;;26.03;58.08;95808.72;5048238;28;20056;-79
2021/06/20 11:00:35;;;;;;;16.60;5.30;;;;;;;26.52;59.53;95790.13;5052615;28;20025;-80
2021/06/20 11:03:07;;;;;;;19.45;5.82;;;;;;;26.13;62.33;95799.84;5048684;28;20067;-79
2021/06/20 11:05:48;;;;;;;17.77;6.38;;;;;;;26.25;60.33;95803.06;5053829;28;20063;-80
2021/06/20 11:08:33;;;;;;;16.55;6.03;;;;;;;26.49;58.76;95806.88;5062284;28;20067;-80
2021/06/20 11:11:05;;;;;;;17.75;5.97;;;;;;;26.30;60.20;95800.38;5061789;28;20043;-79
2021/06/20 11:13:31;;;;;;;19.65;5.85;;;;;;;26.77;58.51;95783.91;5046403;28;20029;-79
2021/06/20 11:16:22;;;;;;;17.00;5.75;;;;;;;26.97;59.37;95783.06;5044938;28;20575;-78
2021/06/20 11:18:47;;;;;;;20.02;5.38;;;;;;;26.75;60.79;95785.25;5045508;28;20032;-79
2021/06/20 11:21:13;;;;;;;15.38;5.70;;;;;;;26.52;61.75;95782.03;5054693;28;20023;-78
2021/06/20 11:23:42;;;;;;;15.77;5.47;;;;;;;25.74;64.14;95782.22;5048323;28;20098;-79
2021/06/20 11:26:08;;;;;;;18.98;6.07;;;;;;;25.31;65.92;95778.06;5036657;28;20562;-78
2021/06/20 11:28:34;;;;;;;19.30;6.95;;;;;;;25.02;67.40;95783.03;5049228;28;20032;-78
2021/06/20 11:31:08;;;;;;;16.95;5.68;;;;;;;24.96;67.12;95779.50;5048865;28;20052;-79